sensor_id;sensor_type;location;lat;lon;timestamp;temperature;humidity
17053;DHT22;8643;48.824;11.422;2023-02-15T00:00:25;-0.70;99.90
17053;DHT22;8643;48.824;11.422;2023-02-15T00:02:53;-0.80;99.90
17053;DHT22;8643;48.824;11.422;2023-02-15T00:05:36;-0.80;99.90
17053;DHT22;8643;48.824;11.422;2023-02-15T00:13:03;-0.80;99.90
17053;DHT22;8643;48.824;11.422;2023-02-15T00:18:00;-0.80;99.90
17053;DHT22;8643;48.824;11.422;2023-02-15T00:20:29;-0.80;99.90
17053;DHT22;8643;48.824;11.422;2023-02-15T00:22:58;-0.80;99.90
17053;DHT22;8643;48.824;11.422;2023-02-15T00:30:26;-0.90;99.90
17053;DHT22;8643;48.824;11.422;2023-02-15T00:35:26;-0.80;99.90
17053;DHT22;8643;48.824;11.422;2023-02-15T00:37:56;-0.80;99.90
17053;DHT22;8643;48.824;11.422;2023-02-15T00:40:24;-0.80;99.90
17053;DHT22;8643;48.824;11.422;2023-02-15T00:45:22;-0.80;99.90
17053;DHT22;8643;48.824;11.422;2023-02-15T00:47:52;-0.80;99.90
17053;DHT22;8643;48.824;11.422;2023-02-15T00:52:49;-0.80;99.90
17053;DHT22;8643;48.824;11.422;2023-02-15T00:55:19;-0.80;99.90
17053;DHT22;8643;48.824;11.422;2023-02-15T00:57:48;-0.80;99.90
17053;DHT22;8643;48.824;11.422;2023-02-15T01:00:17;-0.80;99.90
17053;DHT22;8643;48.824;11.422;2023-02-15T01:05:15;-0.80;99.90
17053;DHT22;8643;48.824;11.422;2023-02-15T01:07:44;-0.90;99.90
17053;DHT22;8643;48.824;11.422;2023-02-15T01:12:41;-0.80;99.90
17053;DHT22;8643;48.824;11.422;2023-02-15T01:15:09;-0.90;99.90
17053;DHT22;8643;48.824;11.422;2023-02-15T01:17:38;-0.90;99.90
17053;DHT22;8643;48.824;11.422;2023-02-15T01:20:07;-0.90;99.90
17053;DHT22;8643;48.824;11.422;2023-02-15T01:22:37;-0.90;99.90
17053;DHT22;8643;48.824;11.422;2023-02-15T01:32:35;-1.10;99.90
17053;DHT22;8643;48.824;11.422;2023-02-15T01:35:05;-1.00;99.90
17053;DHT22;8643;48.824;11.422;2023-02-15T01:37:34;-1.10;99.90
17053;DHT22;8643;48.824;11.422;2023-02-15T01:40:07;-1.10;99.90
17053;DHT22;8643;48.824;11.422;2023-02-15T01:42:40;-1.10;99.90
17053;DHT22;8643;48.824;11.422;2023-02-15T01:45:19;-1.00;99.90
17053;DHT22;8643;48.824;11.422;2023-02-15T01:47:56;-1.10;99.90
17053;DHT22;8643;48.824;11.422;2023-02-15T01:50:32;-1.10;99.90
17053;DHT22;8643;48.824;11.422;2023-02-15T01:53:09;-1.10;99.90
17053;DHT22;8643;48.824;11.422;2023-02-15T01:55:47;-1.10;99.90
17053;DHT22;8643;48.824;11.422;2023-02-15T01:58:21;2.10;99.90
17053;DHT22;8643;48.824;11.422;2023-02-15T02:00:53;-1.10;99.90
17053;DHT22;8643;48.824;11.422;2023-02-15T02:03:29;-1.10;99.90
17053;DHT22;8643;48.824;11.422;2023-02-15T02:06:06;-1.00;99.90
17053;DHT22;8643;48.824;11.422;2023-02-15T02:08:37;-1.10;99.90
17053;DHT22;8643;48.824;11.422;2023-02-15T02:11:10;-1.10;99.90
17053;DHT22;8643;48.824;11.422;2023-02-15T02:13:39;-2.30;99.90
17053;DHT22;8643;48.824;11.422;2023-02-15T02:16:13;-1.10;99.90
17053;DHT22;8643;48.824;11.422;2023-02-15T02:18:54;-1.20;99.90
17053;DHT22;8643;48.824;11.422;2023-02-15T02:28:15;-1.20;99.90
17053;DHT22;8643;48.824;11.422;2023-02-15T02:31:17;-1.30;99.90
17053;DHT22;8643;48.824;11.422;2023-02-15T02:34:08;-1.20;99.90
17053;DHT22;8643;48.824;11.422;2023-02-15T02:36:49;-1.30;99.90
17053;DHT22;8643;48.824;11.422;2023-02-15T02:39:33;-1.30;99.90
17053;DHT22;8643;48.824;11.422;2023-02-15T02:42:16;-1.30;99.90
17053;DHT22;8643;48.824;11.422;2023-02-15T02:44:51;-0.30;99.90
17053;DHT22;8643;48.824;11.422;2023-02-15T02:47:30;-1.30;99.90
17053;DHT22;8643;48.824;11.422;2023-02-15T02:50:07;-1.20;99.90
17053;DHT22;8643;48.824;11.422;2023-02-15T02:52:40;-1.20;99.90
17053;DHT22;8643;48.824;11.422;2023-02-15T02:55:21;-1.20;99.90
17053;DHT22;8643;48.824;11.422;2023-02-15T02:57:57;-0.20;99.90
17053;DHT22;8643;48.824;11.422;2023-02-15T03:00:37;-1.20;99.90
17053;DHT22;8643;48.824;11.422;2023-02-15T03:03:11;-1.20;99.90
17053;DHT22;8643;48.824;11.422;2023-02-15T03:05:47;-1.30;99.90
17053;DHT22;8643;48.824;11.422;2023-02-15T03:08:23;-1.30;99.90
17053;DHT22;8643;48.824;11.422;2023-02-15T03:10:59;-1.30;99.90
17053;DHT22;8643;48.824;11.422;2023-02-15T03:13:30;-1.40;99.90
17053;DHT22;8643;48.824;11.422;2023-02-15T03:16:00;-1.50;99.90
17053;DHT22;8643;48.824;11.422;2023-02-15T03:18:51;-2.20;99.90
17053;DHT22;8643;48.824;11.422;2023-02-15T03:21:32;-1.40;99.90
17053;DHT22;8643;48.824;11.422;2023-02-15T03:24:09;-1.30;99.90
17053;DHT22;8643;48.824;11.422;2023-02-15T03:26:45;-1.40;99.90
17053;DHT22;8643;48.824;11.422;2023-02-15T03:29:18;-1.30;99.90
17053;DHT22;8643;48.824;11.422;2023-02-15T03:31:53;-1.30;99.90
17053;DHT22;8643;48.824;11.422;2023-02-15T03:34:26;-1.30;99.90
17053;DHT22;8643;48.824;11.422;2023-02-15T03:37:03;-1.30;99.90
17053;DHT22;8643;48.824;11.422;2023-02-15T03:39:42;-1.30;99.90
17053;DHT22;8643;48.824;11.422;2023-02-15T03:42:17;-1.40;99.90
17053;DHT22;8643;48.824;11.422;2023-02-15T03:44:57;-1.40;99.90
17053;DHT22;8643;48.824;11.422;2023-02-15T03:47:32;-1.40;99.90
17053;DHT22;8643;48.824;11.422;2023-02-15T03:50:06;-1.50;99.90
17053;DHT22;8643;48.824;11.422;2023-02-15T03:52:54;-1.50;99.90
17053;DHT22;8643;48.824;11.422;2023-02-15T03:57:55;-1.40;99.90
17053;DHT22;8643;48.824;11.422;2023-02-15T04:00:49;-0.20;99.90
17053;DHT22;8643;48.824;11.422;2023-02-15T04:03:43;-1.40;99.90
17053;DHT22;8643;48.824;11.422;2023-02-15T04:08:46;-1.50;99.90
17053;DHT22;8643;48.824;11.422;2023-02-15T04:11:41;-1.50;99.90
17053;DHT22;8643;48.824;11.422;2023-02-15T04:14:09;-1.60;99.90
17053;DHT22;8643;48.824;11.422;2023-02-15T04:16:51;-1.50;99.90
17053;DHT22;8643;48.824;11.422;2023-02-15T04:22:06;-1.50;99.90
17053;DHT22;8643;48.824;11.422;2023-02-15T04:24:53;-1.50;99.90
17053;DHT22;8643;48.824;11.422;2023-02-15T04:27:41;-0.50;99.90
17053;DHT22;8643;48.824;11.422;2023-02-15T04:30:12;-1.40;99.90
17053;DHT22;8643;48.824;11.422;2023-02-15T04:32:42;-1.40;99.90
17053;DHT22;8643;48.824;11.422;2023-02-15T04:37:40;-1.50;99.90
17053;DHT22;8643;48.824;11.422;2023-02-15T04:40:13;-1.30;99.90
17053;DHT22;8643;48.824;11.422;2023-02-15T04:42:47;-1.30;99.90
17053;DHT22;8643;48.824;11.422;2023-02-15T04:47:46;-1.40;99.90
17053;DHT22;8643;48.824;11.422;2023-02-15T04:50:14;-1.40;99.90
17053;DHT22;8643;48.824;11.422;2023-02-15T04:52:42;-1.40;99.90
17053;DHT22;8643;48.824;11.422;2023-02-15T04:55:13;-1.40;99.90
17053;DHT22;8643;48.824;11.422;2023-02-15T04:57:41;-1.50;99.90
17053;DHT22;8643;48.824;11.422;2023-02-15T05:00:10;-1.40;99.90
17053;DHT22;8643;48.824;11.422;2023-02-15T05:02:39;-1.40;99.90
17053;DHT22;8643;48.824;11.422;2023-02-15T05:05:07;-1.10;99.90
17053;DHT22;8643;48.824;11.422;2023-02-15T05:10:09;-1.40;99.90
17053;DHT22;8643;48.824;11.422;2023-02-15T05:12:38;-1.70;99.90
17053;DHT22;8643;48.824;11.422;2023-02-15T05:15:07;-0.40;99.90
17053;DHT22;8643;48.824;11.422;2023-02-15T05:17:36;-1.40;99.90
17053;DHT22;8643;48.824;11.422;2023-02-15T05:20:05;-1.50;99.90
17053;DHT22;8643;48.824;11.422;2023-02-15T05:22:34;-1.40;99.90
17053;DHT22;8643;48.824;11.422;2023-02-15T05:27:52;-1.40;99.90
17053;DHT22;8643;48.824;11.422;2023-02-15T05:38:05;-1.50;99.90
17053;DHT22;8643;48.824;11.422;2023-02-15T05:40:33;-1.40;99.90
17053;DHT22;8643;48.824;11.422;2023-02-15T05:43:03;-1.40;99.90
17053;DHT22;8643;48.824;11.422;2023-02-15T05:45:31;-1.40;99.90
17053;DHT22;8643;48.824;11.422;2023-02-15T05:48:00;-0.80;99.90
17053;DHT22;8643;48.824;11.422;2023-02-15T05:50:28;-1.40;99.90
17053;DHT22;8643;48.824;11.422;2023-02-15T06:00:26;-1.40;99.90
17053;DHT22;8643;48.824;11.422;2023-02-15T06:02:55;-1.40;99.90
17053;DHT22;8643;48.824;11.422;2023-02-15T06:12:49;-1.40;99.90
17053;DHT22;8643;48.824;11.422;2023-02-15T06:15:18;-1.40;99.90
17053;DHT22;8643;48.824;11.422;2023-02-15T06:17:47;-1.40;99.90
17053;DHT22;8643;48.824;11.422;2023-02-15T06:20:16;-1.30;99.90
17053;DHT22;8643;48.824;11.422;2023-02-15T06:27:43;-1.40;99.90
17053;DHT22;8643;48.824;11.422;2023-02-15T06:30:12;-1.40;99.90
17053;DHT22;8643;48.824;11.422;2023-02-15T06:35:11;-1.20;99.90
17053;DHT22;8643;48.824;11.422;2023-02-15T06:37:40;-1.40;99.90
17053;DHT22;8643;48.824;11.422;2023-02-15T06:40:09;-0.90;99.90
17053;DHT22;8643;48.824;11.422;2023-02-15T06:42:38;-1.50;99.90
17053;DHT22;8643;48.824;11.422;2023-02-15T06:45:08;-1.40;99.90
17053;DHT22;8643;48.824;11.422;2023-02-15T06:47:38;-1.50;99.90
17053;DHT22;8643;48.824;11.422;2023-02-15T06:50:07;-1.50;99.90
17053;DHT22;8643;48.824;11.422;2023-02-15T06:52:38;-0.50;99.90
17053;DHT22;8643;48.824;11.422;2023-02-15T06:55:07;-1.50;99.90
17053;DHT22;8643;48.824;11.422;2023-02-15T07:00:05;-0.30;99.90
17053;DHT22;8643;48.824;11.422;2023-02-15T07:07:32;-1.50;99.90
17053;DHT22;8643;48.824;11.422;2023-02-15T07:10:02;-2.40;99.90
17053;DHT22;8643;48.824;11.422;2023-02-15T07:12:31;-1.50;99.90
17053;DHT22;8643;48.824;11.422;2023-02-15T07:15:14;-1.50;99.90
17053;DHT22;8643;48.824;11.422;2023-02-15T07:17:44;-2.00;99.90
17053;DHT22;8643;48.824;11.422;2023-02-15T07:20:14;-1.40;99.90
17053;DHT22;8643;48.824;11.422;2023-02-15T07:25:15;-1.30;99.90
17053;DHT22;8643;48.824;11.422;2023-02-15T07:30:15;-1.30;99.90
17053;DHT22;8643;48.824;11.422;2023-02-15T07:40:34;-1.50;99.90
17053;DHT22;8643;48.824;11.422;2023-02-15T07:43:03;-1.40;99.90
17053;DHT22;8643;48.824;11.422;2023-02-15T07:48:00;-1.30;99.90
17053;DHT22;8643;48.824;11.422;2023-02-15T07:50:28;-1.90;99.90
17053;DHT22;8643;48.824;11.422;2023-02-15T07:55:26;-0.80;99.90
17053;DHT22;8643;48.824;11.422;2023-02-15T07:57:56;-1.20;99.90
17053;DHT22;8643;48.824;11.422;2023-02-15T08:00:24;2.30;99.90
17053;DHT22;8643;48.824;11.422;2023-02-15T08:02:55;-1.10;99.90
17053;DHT22;8643;48.824;11.422;2023-02-15T08:05:43;-1.20;99.90
17053;DHT22;8643;48.824;11.422;2023-02-15T08:16:24;-1.20;99.90
17053;DHT22;8643;48.824;11.422;2023-02-15T08:18:54;-1.30;99.90
17053;DHT22;8643;48.824;11.422;2023-02-15T08:21:28;-1.40;99.90
17053;DHT22;8643;48.824;11.422;2023-02-15T08:23:58;-1.30;99.90
17053;DHT22;8643;48.824;11.422;2023-02-15T08:26:28;-1.20;99.90
17053;DHT22;8643;48.824;11.422;2023-02-15T08:28:59;-1.30;99.90
17053;DHT22;8643;48.824;11.422;2023-02-15T08:31:28;-1.30;99.90
17053;DHT22;8643;48.824;11.422;2023-02-15T08:38:59;-1.10;99.90
17053;DHT22;8643;48.824;11.422;2023-02-15T08:41:34;-1.10;99.90
17053;DHT22;8643;48.824;11.422;2023-02-15T08:44:07;-1.10;99.90
17053;DHT22;8643;48.824;11.422;2023-02-15T08:46:37;-2.40;99.90
17053;DHT22;8643;48.824;11.422;2023-02-15T08:49:09;-1.10;99.90
17053;DHT22;8643;48.824;11.422;2023-02-15T08:51:43;-1.90;99.90
17053;DHT22;8643;48.824;11.422;2023-02-15T08:54:14;-1.00;99.90
17053;DHT22;8643;48.824;11.422;2023-02-15T08:56:44;-0.90;99.90
17053;DHT22;8643;48.824;11.422;2023-02-15T08:59:17;-0.90;99.90
17053;DHT22;8643;48.824;11.422;2023-02-15T09:01:48;-0.90;99.90
17053;DHT22;8643;48.824;11.422;2023-02-15T09:04:17;-0.90;99.90
17053;DHT22;8643;48.824;11.422;2023-02-15T09:09:17;-0.80;99.90
17053;DHT22;8643;48.824;11.422;2023-02-15T09:11:48;-0.70;99.90
17053;DHT22;8643;48.824;11.422;2023-02-15T09:14:26;-0.80;99.90
17053;DHT22;8643;48.824;11.422;2023-02-15T09:16:55;-0.80;99.90
17053;DHT22;8643;48.824;11.422;2023-02-15T09:19:24;-0.70;99.90
17053;DHT22;8643;48.824;11.422;2023-02-15T09:24:21;0.00;99.90
17053;DHT22;8643;48.824;11.422;2023-02-15T09:26:50;-0.70;99.90
17053;DHT22;8643;48.824;11.422;2023-02-15T09:31:50;0.20;99.90
17053;DHT22;8643;48.824;11.422;2023-02-15T09:34:22;-0.50;99.90
17053;DHT22;8643;48.824;11.422;2023-02-15T09:36:51;1.00;99.90
17053;DHT22;8643;48.824;11.422;2023-02-15T09:39:21;-0.40;99.90
17053;DHT22;8643;48.824;11.422;2023-02-15T09:42:25;-0.40;99.90
17053;DHT22;8643;48.824;11.422;2023-02-15T09:45:20;-0.40;99.90
17053;DHT22;8643;48.824;11.422;2023-02-15T09:48:30;-0.40;99.90
17053;DHT22;8643;48.824;11.422;2023-02-15T09:54:27;-0.50;99.90
17053;DHT22;8643;48.824;11.422;2023-02-15T09:57:14;-1.00;99.90
17053;DHT22;8643;48.824;11.422;2023-02-15T09:59:56;-0.30;99.90
17053;DHT22;8643;48.824;11.422;2023-02-15T10:02:50;-0.10;99.90
17053;DHT22;8643;48.824;11.422;2023-02-15T10:05:41;-0.20;99.90
17053;DHT22;8643;48.824;11.422;2023-02-15T10:11:28;-0.20;99.90
17053;DHT22;8643;48.824;11.422;2023-02-15T10:14:27;0.20;99.90
17053;DHT22;8643;48.824;11.422;2023-02-15T10:17:18;-0.20;99.90
17053;DHT22;8643;48.824;11.422;2023-02-15T10:20:02;-0.10;99.90
17053;DHT22;8643;48.824;11.422;2023-02-15T10:22:51;-0.10;99.90
17053;DHT22;8643;48.824;11.422;2023-02-15T10:25:42;-0.10;99.90
17053;DHT22;8643;48.824;11.422;2023-02-15T10:28:18;0.00;99.90
17053;DHT22;8643;48.824;11.422;2023-02-15T10:30:49;-0.10;99.90
17053;DHT22;8643;48.824;11.422;2023-02-15T10:33:38;0.00;99.90
17053;DHT22;8643;48.824;11.422;2023-02-15T10:36:20;0.00;99.90
17053;DHT22;8643;48.824;11.422;2023-02-15T10:39:02;0.00;99.90
17053;DHT22;8643;48.824;11.422;2023-02-15T10:41:46;-0.10;99.90
17053;DHT22;8643;48.824;11.422;2023-02-15T10:44:34;0.10;99.90
17053;DHT22;8643;48.824;11.422;2023-02-15T10:47:31;0.10;99.90
17053;DHT22;8643;48.824;11.422;2023-02-15T10:50:48;0.20;99.90
17053;DHT22;8643;48.824;11.422;2023-02-15T10:53:33;0.20;99.90
17053;DHT22;8643;48.824;11.422;2023-02-15T10:56:23;0.30;99.90
17053;DHT22;8643;48.824;11.422;2023-02-15T10:59:15;0.20;99.90
17053;DHT22;8643;48.824;11.422;2023-02-15T11:02:04;0.10;99.90
17053;DHT22;8643;48.824;11.422;2023-02-15T11:04:48;0.20;99.90
17053;DHT22;8643;48.824;11.422;2023-02-15T11:07:24;0.40;99.90
17053;DHT22;8643;48.824;11.422;2023-02-15T11:10:01;0.20;99.90
17053;DHT22;8643;48.824;11.422;2023-02-15T11:12:46;0.30;99.90
17053;DHT22;8643;48.824;11.422;2023-02-15T11:15:19;0.20;99.90
17053;DHT22;8643;48.824;11.422;2023-02-15T11:17:59;0.30;99.90
17053;DHT22;8643;48.824;11.422;2023-02-15T11:20:35;0.30;99.90
17053;DHT22;8643;48.824;11.422;2023-02-15T11:23:13;0.30;99.90
17053;DHT22;8643;48.824;11.422;2023-02-15T11:25:52;-0.10;99.90
17053;DHT22;8643;48.824;11.422;2023-02-15T11:28:31;0.40;99.90
17053;DHT22;8643;48.824;11.422;2023-02-15T11:31:12;0.50;99.90
17053;DHT22;8643;48.824;11.422;2023-02-15T11:33:47;0.60;99.90
17053;DHT22;8643;48.824;11.422;2023-02-15T11:38:57;0.60;99.90
17053;DHT22;8643;48.824;11.422;2023-02-15T11:41:34;0.60;99.90
17053;DHT22;8643;48.824;11.422;2023-02-15T11:44:13;1.20;99.90
17053;DHT22;8643;48.824;11.422;2023-02-15T11:46:45;0.50;99.90
17053;DHT22;8643;48.824;11.422;2023-02-15T11:49:21;0.50;99.90
17053;DHT22;8643;48.824;11.422;2023-02-15T11:51:55;0.60;99.90
17053;DHT22;8643;48.824;11.422;2023-02-15T11:54:28;0.60;99.90
17053;DHT22;8643;48.824;11.422;2023-02-15T11:57:04;0.60;99.90
17053;DHT22;8643;48.824;11.422;2023-02-15T11:59:44;0.60;99.90
17053;DHT22;8643;48.824;11.422;2023-02-15T12:02:19;0.70;99.90
17053;DHT22;8643;48.824;11.422;2023-02-15T12:04:52;0.70;99.90
17053;DHT22;8643;48.824;11.422;2023-02-15T12:07:27;0.80;99.90
17053;DHT22;8643;48.824;11.422;2023-02-15T12:10:03;-0.30;99.90
17053;DHT22;8643;48.824;11.422;2023-02-15T12:12:38;0.70;99.90
17053;DHT22;8643;48.824;11.422;2023-02-15T12:15:10;0.80;99.90
17053;DHT22;8643;48.824;11.422;2023-02-15T12:17:48;0.80;99.90
17053;DHT22;8643;48.824;11.422;2023-02-15T12:20:25;0.70;99.90
17053;DHT22;8643;48.824;11.422;2023-02-15T12:23:00;0.90;99.90
17053;DHT22;8643;48.824;11.422;2023-02-15T12:25:36;0.90;99.90
17053;DHT22;8643;48.824;11.422;2023-02-15T12:28:23;0.80;99.90
17053;DHT22;8643;48.824;11.422;2023-02-15T12:30:56;0.80;99.90
17053;DHT22;8643;48.824;11.422;2023-02-15T12:33:28;0.80;99.90
17053;DHT22;8643;48.824;11.422;2023-02-15T12:36:01;0.80;99.90
17053;DHT22;8643;48.824;11.422;2023-02-15T12:41:03;0.80;99.90
17053;DHT22;8643;48.824;11.422;2023-02-15T12:43:35;0.90;99.90
17053;DHT22;8643;48.824;11.422;2023-02-15T12:46:20;0.80;99.90
17053;DHT22;8643;48.824;11.422;2023-02-15T12:51:47;0.80;99.90
17053;DHT22;8643;48.824;11.422;2023-02-15T12:54:35;0.80;99.90
17053;DHT22;8643;48.824;11.422;2023-02-15T12:57:25;3.60;99.90
17053;DHT22;8643;48.824;11.422;2023-02-15T12:59:56;0.80;99.90
17053;DHT22;8643;48.824;11.422;2023-02-15T13:02:36;0.90;99.90
17053;DHT22;8643;48.824;11.422;2023-02-15T13:05:18;1.00;99.90
17053;DHT22;8643;48.824;11.422;2023-02-15T13:07:55;1.00;99.90
17053;DHT22;8643;48.824;11.422;2023-02-15T13:10:28;0.90;99.90
17053;DHT22;8643;48.824;11.422;2023-02-15T13:15:35;0.90;99.90
17053;DHT22;8643;48.824;11.422;2023-02-15T13:18:12;0.90;99.90
17053;DHT22;8643;48.824;11.422;2023-02-15T13:20:45;0.90;99.90
17053;DHT22;8643;48.824;11.422;2023-02-15T13:23:25;0.90;99.90
17053;DHT22;8643;48.824;11.422;2023-02-15T13:25:58;0.80;99.90
17053;DHT22;8643;48.824;11.422;2023-02-15T13:28:37;0.90;99.90
17053;DHT22;8643;48.824;11.422;2023-02-15T13:31:13;0.90;99.90
17053;DHT22;8643;48.824;11.422;2023-02-15T13:33:50;0.90;99.90
17053;DHT22;8643;48.824;11.422;2023-02-15T13:36:26;0.90;99.90
17053;DHT22;8643;48.824;11.422;2023-02-15T13:39:06;0.90;99.90
17053;DHT22;8643;48.824;11.422;2023-02-15T13:41:53;0.90;99.90
17053;DHT22;8643;48.824;11.422;2023-02-15T13:44:45;1.00;99.90
17053;DHT22;8643;48.824;11.422;2023-02-15T13:47:28;1.00;99.90
17053;DHT22;8643;48.824;11.422;2023-02-15T13:50:16;1.00;99.90
17053;DHT22;8643;48.824;11.422;2023-02-15T13:53:10;1.00;99.90
17053;DHT22;8643;48.824;11.422;2023-02-15T13:55:59;1.00;99.90
17053;DHT22;8643;48.824;11.422;2023-02-15T14:01:45;1.00;99.90
17053;DHT22;8643;48.824;11.422;2023-02-15T14:04:41;1.00;99.90
17053;DHT22;8643;48.824;11.422;2023-02-15T14:07:32;1.10;99.90
17053;DHT22;8643;48.824;11.422;2023-02-15T14:10:25;1.10;99.90
17053;DHT22;8643;48.824;11.422;2023-02-15T14:16:33;1.10;99.90
17053;DHT22;8643;48.824;11.422;2023-02-15T14:19:18;2.10;99.90
17053;DHT22;8643;48.824;11.422;2023-02-15T14:21:58;1.00;99.90
17053;DHT22;8643;48.824;11.422;2023-02-15T14:24:38;2.00;99.90
17053;DHT22;8643;48.824;11.422;2023-02-15T14:27:20;1.00;99.90
17053;DHT22;8643;48.824;11.422;2023-02-15T14:29:57;1.00;99.90
17053;DHT22;8643;48.824;11.422;2023-02-15T14:32:31;0.90;99.90
17053;DHT22;8643;48.824;11.422;2023-02-15T14:35:15;0.90;99.90
17053;DHT22;8643;48.824;11.422;2023-02-15T14:37:52;0.80;99.90
17053;DHT22;8643;48.824;11.422;2023-02-15T14:40:34;0.80;99.90
17053;DHT22;8643;48.824;11.422;2023-02-15T14:43:37;0.90;99.90
17053;DHT22;8643;48.824;11.422;2023-02-15T14:46:22;0.90;99.90
17053;DHT22;8643;48.824;11.422;2023-02-15T14:48:57;0.90;99.90
17053;DHT22;8643;48.824;11.422;2023-02-15T14:51:54;0.90;99.90
17053;DHT22;8643;48.824;11.422;2023-02-15T14:54:54;0.90;99.90
17053;DHT22;8643;48.824;11.422;2023-02-15T14:57:30;0.90;99.90
17053;DHT22;8643;48.824;11.422;2023-02-15T15:00:30;2.10;99.90
17053;DHT22;8643;48.824;11.422;2023-02-15T15:03:11;0.90;99.90
17053;DHT22;8643;48.824;11.422;2023-02-15T15:05:53;0.90;99.90
17053;DHT22;8643;48.824;11.422;2023-02-15T15:08:33;0.90;99.90
17053;DHT22;8643;48.824;11.422;2023-02-15T15:11:39;1.00;99.90
17053;DHT22;8643;48.824;11.422;2023-02-15T15:14:41;0.90;99.90
17053;DHT22;8643;48.824;11.422;2023-02-15T15:17:12;0.80;99.90
17053;DHT22;8643;48.824;11.422;2023-02-15T15:20:08;0.90;99.90
17053;DHT22;8643;48.824;11.422;2023-02-15T15:22:41;0.80;99.90
17053;DHT22;8643;48.824;11.422;2023-02-15T15:25:39;0.80;99.90
17053;DHT22;8643;48.824;11.422;2023-02-15T15:28:52;0.70;99.90
17053;DHT22;8643;48.824;11.422;2023-02-15T15:31:30;0.70;99.90
17053;DHT22;8643;48.824;11.422;2023-02-15T15:34:41;0.60;99.90
17053;DHT22;8643;48.824;11.422;2023-02-15T15:37:48;0.50;99.90
17053;DHT22;8643;48.824;11.422;2023-02-15T15:40:47;0.50;99.90
17053;DHT22;8643;48.824;11.422;2023-02-15T15:44:09;0.50;99.90
17053;DHT22;8643;48.824;11.422;2023-02-15T15:47:13;0.50;99.90
17053;DHT22;8643;48.824;11.422;2023-02-15T15:49:55;0.50;99.90
17053;DHT22;8643;48.824;11.422;2023-02-15T15:52:26;0.40;99.90
17053;DHT22;8643;48.824;11.422;2023-02-15T15:55:14;0.40;99.90
17053;DHT22;8643;48.824;11.422;2023-02-15T15:57:47;0.40;99.90
17053;DHT22;8643;48.824;11.422;2023-02-15T16:00:33;0.40;99.90
17053;DHT22;8643;48.824;11.422;2023-02-15T16:03:14;0.30;99.90
17053;DHT22;8643;48.824;11.422;2023-02-15T16:05:43;0.30;99.90
17053;DHT22;8643;48.824;11.422;2023-02-15T16:10:42;0.30;99.90
17053;DHT22;8643;48.824;11.422;2023-02-15T16:13:13;0.30;99.90
17053;DHT22;8643;48.824;11.422;2023-02-15T16:15:44;0.20;99.90
17053;DHT22;8643;48.824;11.422;2023-02-15T16:18:19;0.20;99.90
17053;DHT22;8643;48.824;11.422;2023-02-15T16:20:54;0.20;99.90
17053;DHT22;8643;48.824;11.422;2023-02-15T16:26:53;0.20;99.90
17053;DHT22;8643;48.824;11.422;2023-02-15T16:29:36;0.10;99.90
17053;DHT22;8643;48.824;11.422;2023-02-15T16:32:19;0.10;99.90
17053;DHT22;8643;48.824;11.422;2023-02-15T16:34:55;0.10;99.90
17053;DHT22;8643;48.824;11.422;2023-02-15T16:37:26;0.10;99.90
17053;DHT22;8643;48.824;11.422;2023-02-15T16:39:59;0.10;99.90
17053;DHT22;8643;48.824;11.422;2023-02-15T16:42:28;0.20;99.90
17053;DHT22;8643;48.824;11.422;2023-02-15T16:45:02;0.10;99.90
17053;DHT22;8643;48.824;11.422;2023-02-15T16:47:39;0.10;99.90
17053;DHT22;8643;48.824;11.422;2023-02-15T16:50:19;0.10;99.90
17053;DHT22;8643;48.824;11.422;2023-02-15T16:52:51;0.10;99.90
17053;DHT22;8643;48.824;11.422;2023-02-15T16:55:22;0.10;99.90
17053;DHT22;8643;48.824;11.422;2023-02-15T16:57:56;0.20;99.90
17053;DHT22;8643;48.824;11.422;2023-02-15T17:00:31;0.30;99.90
17053;DHT22;8643;48.824;11.422;2023-02-15T17:03:06;0.10;99.90
17053;DHT22;8643;48.824;11.422;2023-02-15T17:05:52;0.20;99.90
17053;DHT22;8643;48.824;11.422;2023-02-15T17:08:29;0.10;99.90
17053;DHT22;8643;48.824;11.422;2023-02-15T17:11:12;0.10;99.90
17053;DHT22;8643;48.824;11.422;2023-02-15T17:14:11;0.20;99.90
17053;DHT22;8643;48.824;11.422;2023-02-15T17:16:43;-0.50;99.90
17053;DHT22;8643;48.824;11.422;2023-02-15T17:21:55;0.20;99.90
17053;DHT22;8643;48.824;11.422;2023-02-15T17:24:33;0.10;99.90
17053;DHT22;8643;48.824;11.422;2023-02-15T17:27:10;0.10;99.90
17053;DHT22;8643;48.824;11.422;2023-02-15T17:29:43;0.10;99.90
17053;DHT22;8643;48.824;11.422;2023-02-15T17:32:17;0.10;99.90
17053;DHT22;8643;48.824;11.422;2023-02-15T17:34:56;0.10;99.90
17053;DHT22;8643;48.824;11.422;2023-02-15T17:37:30;0.00;99.90
17053;DHT22;8643;48.824;11.422;2023-02-15T17:40:18;0.10;99.90
17053;DHT22;8643;48.824;11.422;2023-02-15T17:42:49;0.00;99.90
17053;DHT22;8643;48.824;11.422;2023-02-15T17:45:18;0.00;99.90
17053;DHT22;8643;48.824;11.422;2023-02-15T17:47:47;0.00;99.90
17053;DHT22;8643;48.824;11.422;2023-02-15T17:50:20;0.00;99.90
17053;DHT22;8643;48.824;11.422;2023-02-15T17:52:51;0.00;99.90
17053;DHT22;8643;48.824;11.422;2023-02-15T17:55:22;0.00;99.90
17053;DHT22;8643;48.824;11.422;2023-02-15T17:58:06;0.20;99.90
17053;DHT22;8643;48.824;11.422;2023-02-15T18:00:39;0.20;99.90
17053;DHT22;8643;48.824;11.422;2023-02-15T18:03:35;0.10;99.90
17053;DHT22;8643;48.824;11.422;2023-02-15T18:06:25;0.10;99.90
17053;DHT22;8643;48.824;11.422;2023-02-15T18:09:14;0.20;99.90
17053;DHT22;8643;48.824;11.422;2023-02-15T18:12:11;0.10;99.90
17053;DHT22;8643;48.824;11.422;2023-02-15T18:14:46;-0.90;99.90
17053;DHT22;8643;48.824;11.422;2023-02-15T18:19:45;0.10;99.90
17053;DHT22;8643;48.824;11.422;2023-02-15T18:22:16;1.40;99.90
17053;DHT22;8643;48.824;11.422;2023-02-15T18:24:48;0.10;99.90
17053;DHT22;8643;48.824;11.422;2023-02-15T18:29:47;0.00;99.90
17053;DHT22;8643;48.824;11.422;2023-02-15T18:32:17;0.00;99.90
17053;DHT22;8643;48.824;11.422;2023-02-15T18:34:53;0.10;99.90
17053;DHT22;8643;48.824;11.422;2023-02-15T18:37:29;0.50;99.90
17053;DHT22;8643;48.824;11.422;2023-02-15T18:40:01;0.10;99.90
17053;DHT22;8643;48.824;11.422;2023-02-15T18:42:32;0.00;99.90
17053;DHT22;8643;48.824;11.422;2023-02-15T18:45:13;0.10;99.90
17053;DHT22;8643;48.824;11.422;2023-02-15T18:47:44;0.10;99.90
17053;DHT22;8643;48.824;11.422;2023-02-15T18:50:14;0.30;99.90
17053;DHT22;8643;48.824;11.422;2023-02-15T18:52:46;0.10;99.90
17053;DHT22;8643;48.824;11.422;2023-02-15T18:55:19;0.10;99.90
17053;DHT22;8643;48.824;11.422;2023-02-15T19:00:21;0.10;99.90
17053;DHT22;8643;48.824;11.422;2023-02-15T19:05:22;0.00;99.90
17053;DHT22;8643;48.824;11.422;2023-02-15T19:07:53;0.00;99.90
17053;DHT22;8643;48.824;11.422;2023-02-15T19:10:26;-0.10;99.90
17053;DHT22;8643;48.824;11.422;2023-02-15T19:12:57;-0.10;99.90
17053;DHT22;8643;48.824;11.422;2023-02-15T19:15:27;0.00;99.90
17053;DHT22;8643;48.824;11.422;2023-02-15T19:17:57;-0.40;99.90
17053;DHT22;8643;48.824;11.422;2023-02-15T19:20:29;-0.10;99.90
17053;DHT22;8643;48.824;11.422;2023-02-15T19:22:59;-0.10;99.90
17053;DHT22;8643;48.824;11.422;2023-02-15T19:25:31;-0.10;99.90
17053;DHT22;8643;48.824;11.422;2023-02-15T19:28:13;-0.10;99.90
17053;DHT22;8643;48.824;11.422;2023-02-15T19:30:43;-0.10;99.90
17053;DHT22;8643;48.824;11.422;2023-02-15T19:33:15;-0.10;99.90